sensor_id;sensor_type;location;lat;lon;timestamp;P1;durP1;ratioP1;P2;durP2;ratioP2
34019;SDS011;20895;51.034;3.742;2023-10-19T00:00:45;2.45;;;1.23;;
34019;SDS011;20895;51.034;3.742;2023-10-19T00:03:11;2.90;;;1.20;;
34019;SDS011;20895;51.034;3.742;2023-10-19T00:05:36;5.50;;;1.75;;
34019;SDS011;20895;51.034;3.742;2023-10-19T00:08:02;3.55;;;1.20;;
34019;SDS011;20895;51.034;3.742;2023-10-19T00:10:48;1.40;;;0.68;;
34019;SDS011;20895;51.034;3.742;2023-10-19T00:13:19;2.45;;;1.65;;
34019;SDS011;20895;51.034;3.742;2023-10-19T00:15:44;4.35;;;1.73;;
34019;SDS011;20895;51.034;3.742;2023-10-19T00:18:14;8.00;;;1.65;;
34019;SDS011;20895;51.034;3.742;2023-10-19T00:20:42;4.35;;;1.20;;
34019;SDS011;20895;51.034;3.742;2023-10-19T00:23:11;3.22;;;0.93;;
34019;SDS011;20895;51.034;3.742;2023-10-19T00:25:38;2.83;;;1.00;;
34019;SDS011;20895;51.034;3.742;2023-10-19T00:28:06;4.65;;;1.15;;
34019;SDS011;20895;51.034;3.742;2023-10-19T00:30:31;5.70;;;1.85;;
34019;SDS011;20895;51.034;3.742;2023-10-19T00:33:00;3.20;;;1.02;;
34019;SDS011;20895;51.034;3.742;2023-10-19T00:35:29;5.63;;;1.67;;
34019;SDS011;20895;51.034;3.742;2023-10-19T00:37:59;5.85;;;1.10;;
34019;SDS011;20895;51.034;3.742;2023-10-19T00:40:51;3.03;;;1.10;;
34019;SDS011;20895;51.034;3.742;2023-10-19T00:43:27;4.18;;;1.15;;
34019;SDS011;20895;51.034;3.742;2023-10-19T00:45:53;3.40;;;1.05;;
34019;SDS011;20895;51.034;3.742;2023-10-19T00:48:19;2.40;;;0.90;;
34019;SDS011;20895;51.034;3.742;2023-10-19T00:50:48;2.15;;;1.00;;
34019;SDS011;20895;51.034;3.742;2023-10-19T00:53:17;3.72;;;1.20;;
34019;SDS011;20895;51.034;3.742;2023-10-19T00:55:43;4.80;;;1.30;;
34019;SDS011;20895;51.034;3.742;2023-10-19T00:58:10;2.45;;;0.93;;
34019;SDS011;20895;51.034;3.742;2023-10-19T01:00:39;2.53;;;1.02;;
34019;SDS011;20895;51.034;3.742;2023-10-19T01:03:09;4.22;;;1.00;;
34019;SDS011;20895;51.034;3.742;2023-10-19T01:05:35;2.35;;;0.95;;
34019;SDS011;20895;51.034;3.742;2023-10-19T01:08:03;5.93;;;1.83;;
34019;SDS011;20895;51.034;3.742;2023-10-19T01:10:48;2.53;;;1.20;;
34019;SDS011;20895;51.034;3.742;2023-10-19T01:13:17;4.78;;;0.95;;
34019;SDS011;20895;51.034;3.742;2023-10-19T01:15:42;3.17;;;1.17;;
34019;SDS011;20895;51.034;3.742;2023-10-19T01:18:07;5.47;;;1.42;;
34019;SDS011;20895;51.034;3.742;2023-10-19T01:20:35;3.40;;;1.02;;
34019;SDS011;20895;51.034;3.742;2023-10-19T01:23:16;2.17;;;1.23;;
34019;SDS011;20895;51.034;3.742;2023-10-19T01:28:19;4.38;;;1.52;;
34019;SDS011;20895;51.034;3.742;2023-10-19T01:30:47;8.15;;;1.52;;
34019;SDS011;20895;51.034;3.742;2023-10-19T01:33:16;2.33;;;0.95;;
34019;SDS011;20895;51.034;3.742;2023-10-19T01:35:41;6.22;;;0.90;;
34019;SDS011;20895;51.034;3.742;2023-10-19T01:38:26;2.45;;;1.05;;
34019;SDS011;20895;51.034;3.742;2023-10-19T01:40:51;3.83;;;0.90;;
34019;SDS011;20895;51.034;3.742;2023-10-19T01:43:16;4.88;;;1.50;;
34019;SDS011;20895;51.034;3.742;2023-10-19T01:45:55;3.58;;;1.30;;
34019;SDS011;20895;51.034;3.742;2023-10-19T01:48:21;2.53;;;1.10;;
34019;SDS011;20895;51.034;3.742;2023-10-19T01:50:48;6.30;;;1.27;;
34019;SDS011;20895;51.034;3.742;2023-10-19T01:53:15;5.55;;;1.80;;
34019;SDS011;20895;51.034;3.742;2023-10-19T01:55:44;3.03;;;1.00;;
34019;SDS011;20895;51.034;3.742;2023-10-19T01:58:09;4.40;;;1.25;;
34019;SDS011;20895;51.034;3.742;2023-10-19T02:00:35;3.58;;;1.30;;
34019;SDS011;20895;51.034;3.742;2023-10-19T02:03:06;7.43;;;1.17;;
34019;SDS011;20895;51.034;3.742;2023-10-19T02:05:32;3.78;;;1.08;;
34019;SDS011;20895;51.034;3.742;2023-10-19T02:08:04;3.22;;;1.13;;
34019;SDS011;20895;51.034;3.742;2023-10-19T02:10:32;7.22;;;1.40;;
34019;SDS011;20895;51.034;3.742;2023-10-19T02:12:57;5.32;;;1.10;;
34019;SDS011;20895;51.034;3.742;2023-10-19T02:15:23;5.88;;;1.30;;
34019;SDS011;20895;51.034;3.742;2023-10-19T02:17:48;4.93;;;1.38;;
34019;SDS011;20895;51.034;3.742;2023-10-19T02:20:13;4.80;;;1.30;;
34019;SDS011;20895;51.034;3.742;2023-10-19T02:22:42;2.70;;;1.15;;
34019;SDS011;20895;51.034;3.742;2023-10-19T02:25:07;5.70;;;2.17;;
34019;SDS011;20895;51.034;3.742;2023-10-19T02:27:35;3.25;;;1.13;;
34019;SDS011;20895;51.034;3.742;2023-10-19T02:30:01;4.70;;;1.17;;
34019;SDS011;20895;51.034;3.742;2023-10-19T02:32:27;4.35;;;1.10;;
34019;SDS011;20895;51.034;3.742;2023-10-19T02:34:52;2.97;;;1.20;;
34019;SDS011;20895;51.034;3.742;2023-10-19T02:37:17;6.40;;;1.55;;
34019;SDS011;20895;51.034;3.742;2023-10-19T02:39:42;6.53;;;1.25;;
34019;SDS011;20895;51.034;3.742;2023-10-19T02:42:08;4.90;;;1.70;;
34019;SDS011;20895;51.034;3.742;2023-10-19T02:44:34;3.10;;;1.30;;
34019;SDS011;20895;51.034;3.742;2023-10-19T02:46:59;7.35;;;1.52;;
34019;SDS011;20895;51.034;3.742;2023-10-19T02:49:33;4.93;;;1.48;;
34019;SDS011;20895;51.034;3.742;2023-10-19T02:52:03;3.45;;;1.08;;
34019;SDS011;20895;51.034;3.742;2023-10-19T02:54:31;3.53;;;1.10;;
34019;SDS011;20895;51.034;3.742;2023-10-19T02:56:59;6.97;;;1.40;;
34019;SDS011;20895;51.034;3.742;2023-10-19T02:59:25;5.88;;;1.83;;
34019;SDS011;20895;51.034;3.742;2023-10-19T03:01:51;6.80;;;1.60;;
34019;SDS011;20895;51.034;3.742;2023-10-19T03:04:17;5.68;;;2.53;;
34019;SDS011;20895;51.034;3.742;2023-10-19T03:06:42;4.97;;;1.27;;
34019;SDS011;20895;51.034;3.742;2023-10-19T03:09:08;3.30;;;1.15;;
34019;SDS011;20895;51.034;3.742;2023-10-19T03:11:52;5.25;;;1.52;;
34019;SDS011;20895;51.034;3.742;2023-10-19T03:14:30;6.78;;;1.52;;
34019;SDS011;20895;51.034;3.742;2023-10-19T03:16:57;5.20;;;1.67;;
34019;SDS011;20895;51.034;3.742;2023-10-19T03:19:22;4.68;;;1.75;;
34019;SDS011;20895;51.034;3.742;2023-10-19T03:21:49;6.00;;;1.60;;
34019;SDS011;20895;51.034;3.742;2023-10-19T03:24:15;3.95;;;1.25;;
34019;SDS011;20895;51.034;3.742;2023-10-19T03:27:00;6.60;;;1.48;;
34019;SDS011;20895;51.034;3.742;2023-10-19T03:29:25;5.93;;;2.05;;
34019;SDS011;20895;51.034;3.742;2023-10-19T03:31:56;6.55;;;2.05;;
34019;SDS011;20895;51.034;3.742;2023-10-19T03:34:21;11.05;;;2.53;;
34019;SDS011;20895;51.034;3.742;2023-10-19T03:36:48;6.47;;;1.63;;
34019;SDS011;20895;51.034;3.742;2023-10-19T03:39:15;9.10;;;1.60;;
34019;SDS011;20895;51.034;3.742;2023-10-19T03:41:42;7.25;;;2.05;;
34019;SDS011;20895;51.034;3.742;2023-10-19T03:44:09;6.20;;;1.70;;
34019;SDS011;20895;51.034;3.742;2023-10-19T03:46:49;8.73;;;2.03;;
34019;SDS011;20895;51.034;3.742;2023-10-19T03:49:26;7.85;;;2.05;;
34019;SDS011;20895;51.034;3.742;2023-10-19T03:51:55;4.53;;;1.92;;
34019;SDS011;20895;51.034;3.742;2023-10-19T03:54:27;6.10;;;1.67;;
34019;SDS011;20895;51.034;3.742;2023-10-19T03:56:53;7.45;;;1.58;;
34019;SDS011;20895;51.034;3.742;2023-10-19T03:59:20;7.25;;;1.70;;
34019;SDS011;20895;51.034;3.742;2023-10-19T04:01:46;7.78;;;1.67;;
34019;SDS011;20895;51.034;3.742;2023-10-19T04:04:12;8.27;;;2.00;;
34019;SDS011;20895;51.034;3.742;2023-10-19T04:06:38;7.57;;;2.20;;
34019;SDS011;20895;51.034;3.742;2023-10-19T04:09:04;7.68;;;1.83;;
34019;SDS011;20895;51.034;3.742;2023-10-19T04:11:35;7.20;;;1.67;;
34019;SDS011;20895;51.034;3.742;2023-10-19T04:14:16;6.72;;;2.10;;
34019;SDS011;20895;51.034;3.742;2023-10-19T04:16:42;8.48;;;2.50;;
34019;SDS011;20895;51.034;3.742;2023-10-19T04:19:11;9.35;;;2.60;;
34019;SDS011;20895;51.034;3.742;2023-10-19T04:21:37;6.22;;;1.80;;
34019;SDS011;20895;51.034;3.742;2023-10-19T04:24:05;6.65;;;1.98;;
34019;SDS011;20895;51.034;3.742;2023-10-19T04:26:32;7.00;;;2.00;;
34019;SDS011;20895;51.034;3.742;2023-10-19T04:29:03;6.05;;;1.80;;
34019;SDS011;20895;51.034;3.742;2023-10-19T04:31:42;6.05;;;2.10;;
34019;SDS011;20895;51.034;3.742;2023-10-19T04:34:20;7.30;;;1.80;;
34019;SDS011;20895;51.034;3.742;2023-10-19T04:36:49;4.70;;;1.70;;
34019;SDS011;20895;51.034;3.742;2023-10-19T04:39:14;6.45;;;2.00;;
34019;SDS011;20895;51.034;3.742;2023-10-19T04:41:40;7.85;;;2.00;;
34019;SDS011;20895;51.034;3.742;2023-10-19T04:44:06;4.57;;;1.58;;
34019;SDS011;20895;51.034;3.742;2023-10-19T04:46:33;6.95;;;1.50;;
34019;SDS011;20895;51.034;3.742;2023-10-19T04:48:58;5.68;;;1.73;;
34019;SDS011;20895;51.034;3.742;2023-10-19T04:51:24;6.07;;;2.10;;
34019;SDS011;20895;51.034;3.742;2023-10-19T04:53:49;5.40;;;1.70;;
34019;SDS011;20895;51.034;3.742;2023-10-19T04:56:15;10.45;;;2.10;;
34019;SDS011;20895;51.034;3.742;2023-10-19T04:58:40;12.88;;;3.58;;
34019;SDS011;20895;51.034;3.742;2023-10-19T05:01:05;10.05;;;2.28;;
34019;SDS011;20895;51.034;3.742;2023-10-19T05:03:31;9.98;;;2.20;;
34019;SDS011;20895;51.034;3.742;2023-10-19T05:05:57;8.50;;;2.03;;
34019;SDS011;20895;51.034;3.742;2023-10-19T05:08:23;10.25;;;2.28;;
34019;SDS011;20895;51.034;3.742;2023-10-19T05:10:50;10.15;;;2.08;;
34019;SDS011;20895;51.034;3.742;2023-10-19T05:13:16;5.47;;;1.90;;
34019;SDS011;20895;51.034;3.742;2023-10-19T05:15:41;9.05;;;2.47;;
34019;SDS011;20895;51.034;3.742;2023-10-19T05:18:07;8.75;;;2.22;;
34019;SDS011;20895;51.034;3.742;2023-10-19T05:20:33;8.02;;;2.25;;
34019;SDS011;20895;51.034;3.742;2023-10-19T05:22:58;7.97;;;2.03;;
34019;SDS011;20895;51.034;3.742;2023-10-19T05:25:25;10.27;;;2.17;;
34019;SDS011;20895;51.034;3.742;2023-10-19T05:27:50;10.95;;;2.25;;
34019;SDS011;20895;51.034;3.742;2023-10-19T05:30:15;7.15;;;1.98;;
34019;SDS011;20895;51.034;3.742;2023-10-19T05:32:41;9.02;;;2.60;;
34019;SDS011;20895;51.034;3.742;2023-10-19T05:35:06;6.40;;;1.80;;
34019;SDS011;20895;51.034;3.742;2023-10-19T05:37:31;5.60;;;1.98;;
34019;SDS011;20895;51.034;3.742;2023-10-19T05:39:57;5.13;;;1.77;;
34019;SDS011;20895;51.034;3.742;2023-10-19T05:42:22;9.55;;;2.25;;
34019;SDS011;20895;51.034;3.742;2023-10-19T05:44:48;9.07;;;2.40;;
34019;SDS011;20895;51.034;3.742;2023-10-19T05:47:13;8.10;;;2.13;;
34019;SDS011;20895;51.034;3.742;2023-10-19T05:49:38;12.68;;;2.90;;
34019;SDS011;20895;51.034;3.742;2023-10-19T05:52:03;11.23;;;3.25;;
34019;SDS011;20895;51.034;3.742;2023-10-19T05:54:29;10.27;;;2.22;;
34019;SDS011;20895;51.034;3.742;2023-10-19T05:56:54;12.02;;;3.70;;
34019;SDS011;20895;51.034;3.742;2023-10-19T05:59:19;8.23;;;3.63;;
34019;SDS011;20895;51.034;3.742;2023-10-19T06:01:45;7.05;;;2.70;;
34019;SDS011;20895;51.034;3.742;2023-10-19T06:04:13;7.38;;;2.70;;
34019;SDS011;20895;51.034;3.742;2023-10-19T06:06:38;11.18;;;3.15;;
34019;SDS011;20895;51.034;3.742;2023-10-19T06:09:05;11.43;;;3.55;;
34019;SDS011;20895;51.034;3.742;2023-10-19T06:11:33;7.63;;;2.90;;
34019;SDS011;20895;51.034;3.742;2023-10-19T06:13:58;9.30;;;2.88;;
34019;SDS011;20895;51.034;3.742;2023-10-19T06:16:24;10.77;;;3.22;;
34019;SDS011;20895;51.034;3.742;2023-10-19T06:18:50;9.93;;;3.67;;
34019;SDS011;20895;51.034;3.742;2023-10-19T06:21:17;13.32;;;3.45;;
34019;SDS011;20895;51.034;3.742;2023-10-19T06:23:44;9.10;;;3.28;;
34019;SDS011;20895;51.034;3.742;2023-10-19T06:26:12;15.90;;;4.82;;
34019;SDS011;20895;51.034;3.742;2023-10-19T06:28:37;10.02;;;4.00;;
34019;SDS011;20895;51.034;3.742;2023-10-19T06:31:04;13.57;;;2.78;;
34019;SDS011;20895;51.034;3.742;2023-10-19T06:33:30;9.13;;;2.63;;
34019;SDS011;20895;51.034;3.742;2023-10-19T06:35:58;9.57;;;2.78;;
34019;SDS011;20895;51.034;3.742;2023-10-19T06:38:24;10.82;;;2.22;;
34019;SDS011;20895;51.034;3.742;2023-10-19T06:40:49;12.35;;;2.80;;
34019;SDS011;20895;51.034;3.742;2023-10-19T06:43:14;9.93;;;2.80;;
34019;SDS011;20895;51.034;3.742;2023-10-19T06:45:45;8.27;;;2.13;;
34019;SDS011;20895;51.034;3.742;2023-10-19T06:48:11;16.88;;;3.50;;
34019;SDS011;20895;51.034;3.742;2023-10-19T06:50:36;10.18;;;3.20;;
34019;SDS011;20895;51.034;3.742;2023-10-19T06:53:02;8.63;;;2.75;;
34019;SDS011;20895;51.034;3.742;2023-10-19T06:55:30;10.48;;;3.47;;
34019;SDS011;20895;51.034;3.742;2023-10-19T06:57:55;10.13;;;2.58;;
34019;SDS011;20895;51.034;3.742;2023-10-19T07:00:22;9.68;;;2.40;;
34019;SDS011;20895;51.034;3.742;2023-10-19T07:02:51;10.10;;;2.83;;
34019;SDS011;20895;51.034;3.742;2023-10-19T07:05:16;9.07;;;3.80;;
34019;SDS011;20895;51.034;3.742;2023-10-19T07:07:54;7.93;;;2.55;;
34019;SDS011;20895;51.034;3.742;2023-10-19T07:10:21;9.10;;;2.67;;
34019;SDS011;20895;51.034;3.742;2023-10-19T07:12:48;11.88;;;2.97;;
34019;SDS011;20895;51.034;3.742;2023-10-19T07:15:13;11.85;;;2.80;;
34019;SDS011;20895;51.034;3.742;2023-10-19T07:17:42;8.70;;;3.30;;
34019;SDS011;20895;51.034;3.742;2023-10-19T07:20:08;13.20;;;2.53;;
34019;SDS011;20895;51.034;3.742;2023-10-19T07:22:54;15.02;;;2.67;;
34019;SDS011;20895;51.034;3.742;2023-10-19T07:25:20;14.18;;;2.80;;
34019;SDS011;20895;51.034;3.742;2023-10-19T07:27:47;9.55;;;2.35;;
34019;SDS011;20895;51.034;3.742;2023-10-19T07:30:12;7.75;;;2.58;;
34019;SDS011;20895;51.034;3.742;2023-10-19T07:32:40;15.80;;;3.85;;
34019;SDS011;20895;51.034;3.742;2023-10-19T07:35:05;10.40;;;2.67;;
34019;SDS011;20895;51.034;3.742;2023-10-19T07:37:31;14.10;;;3.80;;
34019;SDS011;20895;51.034;3.742;2023-10-19T07:39:56;9.75;;;2.40;;
34019;SDS011;20895;51.034;3.742;2023-10-19T07:42:22;12.30;;;2.72;;
34019;SDS011;20895;51.034;3.742;2023-10-19T07:44:48;11.07;;;3.00;;
34019;SDS011;20895;51.034;3.742;2023-10-19T07:47:14;6.72;;;2.40;;
34019;SDS011;20895;51.034;3.742;2023-10-19T07:49:39;7.72;;;2.65;;
34019;SDS011;20895;51.034;3.742;2023-10-19T07:52:05;7.78;;;2.72;;
34019;SDS011;20895;51.034;3.742;2023-10-19T07:54:32;11.25;;;2.40;;
34019;SDS011;20895;51.034;3.742;2023-10-19T07:56:57;7.65;;;2.67;;
34019;SDS011;20895;51.034;3.742;2023-10-19T07:59:22;11.75;;;3.55;;
34019;SDS011;20895;51.034;3.742;2023-10-19T08:01:48;11.10;;;2.67;;
34019;SDS011;20895;51.034;3.742;2023-10-19T08:04:13;15.18;;;3.95;;
34019;SDS011;20895;51.034;3.742;2023-10-19T08:06:38;8.30;;;2.53;;
34019;SDS011;20895;51.034;3.742;2023-10-19T08:09:03;8.57;;;2.47;;
34019;SDS011;20895;51.034;3.742;2023-10-19T08:11:30;9.55;;;3.60;;
34019;SDS011;20895;51.034;3.742;2023-10-19T08:13:59;10.23;;;3.75;;
34019;SDS011;20895;51.034;3.742;2023-10-19T08:16:25;9.35;;;2.55;;
34019;SDS011;20895;51.034;3.742;2023-10-19T08:18:52;12.30;;;3.55;;
34019;SDS011;20895;51.034;3.742;2023-10-19T08:21:17;13.40;;;4.22;;
34019;SDS011;20895;51.034;3.742;2023-10-19T08:23:43;11.98;;;2.53;;
34019;SDS011;20895;51.034;3.742;2023-10-19T08:26:10;13.05;;;2.92;;
34019;SDS011;20895;51.034;3.742;2023-10-19T08:28:35;11.02;;;2.58;;
34019;SDS011;20895;51.034;3.742;2023-10-19T08:31:01;11.93;;;3.38;;
34019;SDS011;20895;51.034;3.742;2023-10-19T08:33:27;10.52;;;2.25;;
34019;SDS011;20895;51.034;3.742;2023-10-19T08:35:55;6.25;;;2.90;;
34019;SDS011;20895;51.034;3.742;2023-10-19T08:38:22;7.93;;;4.03;;
34019;SDS011;20895;51.034;3.742;2023-10-19T08:40:48;12.88;;;4.78;;
34019;SDS011;20895;51.034;3.742;2023-10-19T08:43:14;8.82;;;3.55;;
34019;SDS011;20895;51.034;3.742;2023-10-19T08:45:43;10.85;;;3.03;;
34019;SDS011;20895;51.034;3.742;2023-10-19T08:48:08;7.93;;;2.55;;
34019;SDS011;20895;51.034;3.742;2023-10-19T08:50:33;9.30;;;2.85;;
34019;SDS011;20895;51.034;3.742;2023-10-19T08:53:02;18.42;;;3.17;;
34019;SDS011;20895;51.034;3.742;2023-10-19T08:55:28;10.88;;;3.08;;
34019;SDS011;20895;51.034;3.742;2023-10-19T08:57:53;16.88;;;5.22;;
34019;SDS011;20895;51.034;3.742;2023-10-19T09:00:19;8.88;;;2.60;;
34019;SDS011;20895;51.034;3.742;2023-10-19T09:02:45;13.75;;;3.28;;
34019;SDS011;20895;51.034;3.742;2023-10-19T09:05:10;13.57;;;3.22;;
34019;SDS011;20895;51.034;3.742;2023-10-19T09:07:45;9.75;;;3.03;;
34019;SDS011;20895;51.034;3.742;2023-10-19T09:10:14;13.27;;;2.83;;
34019;SDS011;20895;51.034;3.742;2023-10-19T09:12:40;14.60;;;3.20;;
34019;SDS011;20895;51.034;3.742;2023-10-19T09:15:06;6.72;;;2.10;;
34019;SDS011;20895;51.034;3.742;2023-10-19T09:17:45;11.43;;;3.08;;
34019;SDS011;20895;51.034;3.742;2023-10-19T09:20:11;10.40;;;3.45;;
34019;SDS011;20895;51.034;3.742;2023-10-19T09:22:36;11.32;;;3.60;;
34019;SDS011;20895;51.034;3.742;2023-10-19T09:25:02;10.77;;;2.53;;
34019;SDS011;20895;51.034;3.742;2023-10-19T09:27:31;10.18;;;2.92;;
34019;SDS011;20895;51.034;3.742;2023-10-19T09:29:58;12.25;;;2.72;;
34019;SDS011;20895;51.034;3.742;2023-10-19T09:32:25;10.75;;;3.03;;
34019;SDS011;20895;51.034;3.742;2023-10-19T09:34:50;14.00;;;2.85;;
34019;SDS011;20895;51.034;3.742;2023-10-19T09:37:17;9.10;;;2.88;;
34019;SDS011;20895;51.034;3.742;2023-10-19T09:39:43;8.57;;;2.95;;
34019;SDS011;20895;51.034;3.742;2023-10-19T09:42:10;23.30;;;5.63;;
34019;SDS011;20895;51.034;3.742;2023-10-19T09:44:45;7.65;;;2.45;;
34019;SDS011;20895;51.034;3.742;2023-10-19T09:47:15;6.93;;;2.25;;
34019;SDS011;20895;51.034;3.742;2023-10-19T09:49:42;10.32;;;2.65;;
34019;SDS011;20895;51.034;3.742;2023-10-19T09:52:08;10.50;;;2.50;;
34019;SDS011;20895;51.034;3.742;2023-10-19T09:54:37;9.63;;;2.80;;
34019;SDS011;20895;51.034;3.742;2023-10-19T09:57:12;12.13;;;2.80;;
34019;SDS011;20895;51.034;3.742;2023-10-19T09:59:41;8.68;;;2.55;;
34019;SDS011;20895;51.034;3.742;2023-10-19T10:02:10;13.50;;;3.45;;
34019;SDS011;20895;51.034;3.742;2023-10-19T10:04:39;11.18;;;2.72;;
34019;SDS011;20895;51.034;3.742;2023-10-19T10:07:05;9.32;;;3.03;;
34019;SDS011;20895;51.034;3.742;2023-10-19T10:09:32;9.82;;;3.53;;
34019;SDS011;20895;51.034;3.742;2023-10-19T10:12:15;16.45;;;3.67;;
34019;SDS011;20895;51.034;3.742;2023-10-19T10:14:44;13.63;;;3.17;;
34019;SDS011;20895;51.034;3.742;2023-10-19T10:17:17;10.75;;;2.70;;
34019;SDS011;20895;51.034;3.742;2023-10-19T10:19:43;11.65;;;5.30;;
34019;SDS011;20895;51.034;3.742;2023-10-19T10:22:09;12.05;;;3.47;;
34019;SDS011;20895;51.034;3.742;2023-10-19T10:24:42;12.05;;;3.22;;
34019;SDS011;20895;51.034;3.742;2023-10-19T10:27:08;14.80;;;4.30;;
34019;SDS011;20895;51.034;3.742;2023-10-19T10:29:35;12.30;;;3.05;;
34019;SDS011;20895;51.034;3.742;2023-10-19T10:32:00;13.30;;;2.95;;
34019;SDS011;20895;51.034;3.742;2023-10-19T10:37:08;9.63;;;3.78;;
34019;SDS011;20895;51.034;3.742;2023-10-19T10:39:34;12.23;;;2.78;;
34019;SDS011;20895;51.034;3.742;2023-10-19T10:42:05;10.35;;;3.22;;
34019;SDS011;20895;51.034;3.742;2023-10-19T10:47:15;9.50;;;3.80;;
34019;SDS011;20895;51.034;3.742;2023-10-19T10:52:06;15.80;;;3.75;;
34019;SDS011;20895;51.034;3.742;2023-10-19T10:54:32;12.45;;;4.03;;
34019;SDS011;20895;51.034;3.742;2023-10-19T10:56:57;10.93;;;3.42;;
34019;SDS011;20895;51.034;3.742;2023-10-19T10:59:23;16.38;;;4.30;;
34019;SDS011;20895;51.034;3.742;2023-10-19T11:01:50;10.38;;;3.83;;
34019;SDS011;20895;51.034;3.742;2023-10-19T11:04:15;11.60;;;4.05;;
34019;SDS011;20895;51.034;3.742;2023-10-19T11:06:51;16.15;;;5.03;;
34019;SDS011;20895;51.034;3.742;2023-10-19T11:09:17;11.73;;;4.55;;
34019;SDS011;20895;51.034;3.742;2023-10-19T11:11:47;16.40;;;3.83;;
34019;SDS011;20895;51.034;3.742;2023-10-19T11:14:14;13.32;;;3.90;;
34019;SDS011;20895;51.034;3.742;2023-10-19T11:16:39;9.55;;;3.20;;
34019;SDS011;20895;51.034;3.742;2023-10-19T11:19:04;12.30;;;4.20;;
34019;SDS011;20895;51.034;3.742;2023-10-19T11:21:30;13.88;;;4.38;;
34019;SDS011;20895;51.034;3.742;2023-10-19T11:23:55;12.30;;;4.38;;
34019;SDS011;20895;51.034;3.742;2023-10-19T11:26:22;12.10;;;4.70;;
34019;SDS011;20895;51.034;3.742;2023-10-19T11:28:59;11.32;;;4.03;;
34019;SDS011;20895;51.034;3.742;2023-10-19T11:31:25;12.82;;;4.18;;
34019;SDS011;20895;51.034;3.742;2023-10-19T11:33:52;11.63;;;3.70;;
34019;SDS011;20895;51.034;3.742;2023-10-19T11:36:18;10.55;;;3.30;;
34019;SDS011;20895;51.034;3.742;2023-10-19T11:38:45;9.60;;;3.90;;
34019;SDS011;20895;51.034;3.742;2023-10-19T11:41:11;12.10;;;4.03;;
34019;SDS011;20895;51.034;3.742;2023-10-19T11:43:38;13.77;;;3.83;;
34019;SDS011;20895;51.034;3.742;2023-10-19T11:46:03;10.55;;;3.45;;
34019;SDS011;20895;51.034;3.742;2023-10-19T11:48:32;8.40;;;4.20;;
34019;SDS011;20895;51.034;3.742;2023-10-19T11:50:57;14.30;;;4.82;;
34019;SDS011;20895;51.034;3.742;2023-10-19T11:53:22;10.95;;;3.72;;
34019;SDS011;20895;51.034;3.742;2023-10-19T11:55:48;12.40;;;4.57;;
34019;SDS011;20895;51.034;3.742;2023-10-19T11:58:13;9.02;;;3.75;;
34019;SDS011;20895;51.034;3.742;2023-10-19T12:00:39;7.60;;;3.00;;
34019;SDS011;20895;51.034;3.742;2023-10-19T12:03:04;10.10;;;4.15;;
34019;SDS011;20895;51.034;3.742;2023-10-19T12:05:31;9.27;;;3.40;;
34019;SDS011;20895;51.034;3.742;2023-10-19T12:07:56;11.13;;;4.35;;
34019;SDS011;20895;51.034;3.742;2023-10-19T12:10:21;8.27;;;3.63;;
34019;SDS011;20895;51.034;3.742;2023-10-19T12:12:53;6.57;;;3.25;;
34019;SDS011;20895;51.034;3.742;2023-10-19T12:15:18;8.38;;;3.40;;
34019;SDS011;20895;51.034;3.742;2023-10-19T12:17:47;8.25;;;3.78;;
34019;SDS011;20895;51.034;3.742;2023-10-19T12:20:13;6.35;;;3.10;;
34019;SDS011;20895;51.034;3.742;2023-10-19T12:22:39;7.13;;;2.85;;
34019;SDS011;20895;51.034;3.742;2023-10-19T12:25:05;7.90;;;3.20;;
34019;SDS011;20895;51.034;3.742;2023-10-19T12:27:30;7.53;;;2.72;;
34019;SDS011;20895;51.034;3.742;2023-10-19T12:29:56;5.60;;;2.53;;
34019;SDS011;20895;51.034;3.742;2023-10-19T12:32:21;5.60;;;2.40;;
34019;SDS011;20895;51.034;3.742;2023-10-19T12:34:47;7.28;;;2.70;;
34019;SDS011;20895;51.034;3.742;2023-10-19T12:37:15;8.45;;;3.08;;
34019;SDS011;20895;51.034;3.742;2023-10-19T12:39:42;4.63;;;2.40;;
34019;SDS011;20895;51.034;3.742;2023-10-19T12:42:10;5.25;;;1.95;;
34019;SDS011;20895;51.034;3.742;2023-10-19T12:44:35;5.25;;;1.80;;
34019;SDS011;20895;51.034;3.742;2023-10-19T12:47:09;3.42;;;1.48;;
34019;SDS011;20895;51.034;3.742;2023-10-19T12:49:37;5.80;;;2.15;;
34019;SDS011;20895;51.034;3.742;2023-10-19T12:52:03;5.88;;;1.90;;
34019;SDS011;20895;51.034;3.742;2023-10-19T12:54:29;3.13;;;1.50;;
34019;SDS011;20895;51.034;3.742;2023-10-19T12:56:54;5.10;;;1.52;;
34019;SDS011;20895;51.034;3.742;2023-10-19T12:59:19;5.72;;;1.73;;
34019;SDS011;20895;51.034;3.742;2023-10-19T13:01:44;5.38;;;1.80;;
34019;SDS011;20895;51.034;3.742;2023-10-19T13:04:13;3.67;;;1.50;;
34019;SDS011;20895;51.034;3.742;2023-10-19T13:06:43;4.80;;;1.40;;
34019;SDS011;20895;51.034;3.742;2023-10-19T13:09:08;3.65;;;1.60;;
34019;SDS011;20895;51.034;3.742;2023-10-19T13:11:34;4.60;;;1.60;;
34019;SDS011;20895;51.034;3.742;2023-10-19T13:13:59;4.38;;;1.35;;
34019;SDS011;20895;51.034;3.742;2023-10-19T13:16:25;3.65;;;1.20;;
34019;SDS011;20895;51.034;3.742;2023-10-19T13:18:51;4.25;;;1.42;;
34019;SDS011;20895;51.034;3.742;2023-10-19T13:21:16;6.68;;;3.45;;
34019;SDS011;20895;51.034;3.742;2023-10-19T13:23:47;6.00;;;2.08;;
34019;SDS011;20895;51.034;3.742;2023-10-19T13:26:13;3.28;;;1.10;;
34019;SDS011;20895;51.034;3.742;2023-10-19T13:28:42;3.97;;;1.27;;
34019;SDS011;20895;51.034;3.742;2023-10-19T13:31:08;5.20;;;1.00;;
34019;SDS011;20895;51.034;3.742;2023-10-19T13:33:38;7.15;;;1.13;;
34019;SDS011;20895;51.034;3.742;2023-10-19T13:36:05;2.40;;;1.23;;
34019;SDS011;20895;51.034;3.742;2023-10-19T13:38:31;5.03;;;2.22;;
34019;SDS011;20895;51.034;3.742;2023-10-19T13:40:56;3.22;;;1.30;;
34019;SDS011;20895;51.034;3.742;2023-10-19T13:43:21;4.97;;;1.45;;
34019;SDS011;20895;51.034;3.742;2023-10-19T13:45:47;3.30;;;1.25;;
34019;SDS011;20895;51.034;3.742;2023-10-19T13:48:13;2.65;;;1.60;;
34019;SDS011;20895;51.034;3.742;2023-10-19T13:50:42;2.83;;;1.23;;
34019;SDS011;20895;51.034;3.742;2023-10-19T13:53:12;5.47;;;1.80;;
34019;SDS011;20895;51.034;3.742;2023-10-19T13:55:39;4.80;;;1.60;;
34019;SDS011;20895;51.034;3.742;2023-10-19T13:58:04;6.18;;;1.35;;
34019;SDS011;20895;51.034;3.742;2023-10-19T14:00:29;2.75;;;0.90;;
34019;SDS011;20895;51.034;3.742;2023-10-19T14:03:04;2.13;;;1.13;;
34019;SDS011;20895;51.034;3.742;2023-10-19T14:05:30;4.75;;;1.60;;
34019;SDS011;20895;51.034;3.742;2023-10-19T14:08:01;3.13;;;1.20;;
34019;SDS011;20895;51.034;3.742;2023-10-19T14:10:26;2.88;;;1.42;;
34019;SDS011;20895;51.034;3.742;2023-10-19T14:12:53;3.67;;;2.47;;
34019;SDS011;20895;51.034;3.742;2023-10-19T14:15:18;3.63;;;1.30;;
34019;SDS011;20895;51.034;3.742;2023-10-19T14:17:44;6.43;;;1.98;;
34019;SDS011;20895;51.034;3.742;2023-10-19T14:20:11;2.33;;;1.23;;
34019;SDS011;20895;51.034;3.742;2023-10-19T14:22:40;3.67;;;1.50;;
34019;SDS011;20895;51.034;3.742;2023-10-19T14:25:06;3.75;;;1.30;;
34019;SDS011;20895;51.034;3.742;2023-10-19T14:27:33;4.35;;;1.88;;
34019;SDS011;20895;51.034;3.742;2023-10-19T14:29:59;2.75;;;1.08;;
34019;SDS011;20895;51.034;3.742;2023-10-19T14:32:24;2.70;;;1.70;;
34019;SDS011;20895;51.034;3.742;2023-10-19T14:34:52;4.63;;;1.50;;
34019;SDS011;20895;51.034;3.742;2023-10-19T14:37:17;5.78;;;1.48;;
34019;SDS011;20895;51.034;3.742;2023-10-19T14:39:42;3.67;;;1.20;;
34019;SDS011;20895;51.034;3.742;2023-10-19T14:42:07;5.88;;;2.17;;
34019;SDS011;20895;51.034;3.742;2023-10-19T14:44:33;3.00;;;1.25;;
34019;SDS011;20895;51.034;3.742;2023-10-19T14:46:58;4.45;;;1.75;;
34019;SDS011;20895;51.034;3.742;2023-10-19T14:49:24;2.65;;;1.30;;
34019;SDS011;20895;51.034;3.742;2023-10-19T14:51:49;2.80;;;1.60;;
34019;SDS011;20895;51.034;3.742;2023-10-19T14:54:14;5.57;;;1.70;;